UKLL/LWO METAR and TAF weather

Enter ICAO airport designator
Station Type Date Time Source
UKLL METAR 2019/06/26 16:00 UTC NOAA

UKLL 261600Z 19002MPS CAVOK 30/18 Q1021 R31/CLRD// NOSIG


Station Type Date Time Source
UKLL Decoded METAR 2019/06/26 16:00 UTC NOAA

L'Viv, Ukraine (UKLL) 49-49N 023-57E 323M
Jun 26, 2019 - 12:00 PM EDT / 2019.06.26 1600 UTC
Wind: from the S (190 degrees) at 4 MPH (4 KT):0
Visibility: greater than 7 mile(s):0
Temperature: 86 F (30 C)
Dew Point: 64 F (18 C)
Relative Humidity: 48%
Pressure (altimeter): 30.15 in. Hg (1021 hPa)
ob: UKLL 261600Z 19002MPS CAVOK 30/18 Q1021 R31/CLRD// NOSIG
cycle: 16

Station Type Date Time Source
UKLL TAF 2019/06/26 12:12 UTC NOAA

TAF UKLL 261104Z 2612/2712 20004MPS 9999 BKN033 TX31/2613Z TN19/2701Z
BECMG 2613/2615 VRB01MPS
BECMG 2622/2624 25004MPS
BECMG 2704/2705 30006G11MPS
TEMPO 2705/2712 32009G17MPS 2100 -SHRA SCT005 BKN007 BKN015CB PROB40
TEMPO 2705/2712 -TSRAGR BKN025CB

Example: see airport list